sensor_id;sensor_type;location;lat;lon;timestamp;P1;durP1;ratioP1;P2;durP2;ratioP2
15673;SDS011;7937;48.090;16.212;2023-02-04T00:02:35;1.43;;;0.77;;
15673;SDS011;7937;48.090;16.212;2023-02-04T00:05:39;2.33;;;1.17;;
15673;SDS011;7937;48.090;16.212;2023-02-04T00:08:41;2.07;;;0.87;;
15673;SDS011;7937;48.090;16.212;2023-02-04T00:11:43;2.30;;;0.80;;
15673;SDS011;7937;48.090;16.212;2023-02-04T00:14:46;2.10;;;1.10;;
15673;SDS011;7937;48.090;16.212;2023-02-04T00:17:48;1.53;;;0.83;;
15673;SDS011;7937;48.090;16.212;2023-02-04T00:20:50;3.47;;;0.97;;
15673;SDS011;7937;48.090;16.212;2023-02-04T00:23:52;4.50;;;1.00;;
15673;SDS011;7937;48.090;16.212;2023-02-04T00:26:57;2.93;;;0.97;;
15673;SDS011;7937;48.090;16.212;2023-02-04T00:29:59;3.33;;;1.43;;
15673;SDS011;7937;48.090;16.212;2023-02-04T00:33:01;4.90;;;0.97;;
15673;SDS011;7937;48.090;16.212;2023-02-04T00:36:03;1.40;;;0.80;;
15673;SDS011;7937;48.090;16.212;2023-02-04T00:39:05;3.53;;;1.20;;
15673;SDS011;7937;48.090;16.212;2023-02-04T00:42:07;5.03;;;0.90;;
15673;SDS011;7937;48.090;16.212;2023-02-04T00:45:10;2.70;;;0.93;;
15673;SDS011;7937;48.090;16.212;2023-02-04T00:48:13;2.33;;;0.80;;
15673;SDS011;7937;48.090;16.212;2023-02-04T00:51:15;2.90;;;0.97;;
15673;SDS011;7937;48.090;16.212;2023-02-04T00:54:17;2.53;;;0.90;;
15673;SDS011;7937;48.090;16.212;2023-02-04T00:57:19;1.70;;;1.00;;
15673;SDS011;7937;48.090;16.212;2023-02-04T01:00:22;3.17;;;0.80;;
15673;SDS011;7937;48.090;16.212;2023-02-04T01:03:24;3.27;;;1.33;;
15673;SDS011;7937;48.090;16.212;2023-02-04T01:06:26;3.90;;;1.17;;
15673;SDS011;7937;48.090;16.212;2023-02-04T01:09:29;4.00;;;1.13;;
15673;SDS011;7937;48.090;16.212;2023-02-04T01:12:31;4.17;;;1.10;;
15673;SDS011;7937;48.090;16.212;2023-02-04T01:15:34;6.10;;;1.17;;
15673;SDS011;7937;48.090;16.212;2023-02-04T01:18:36;4.70;;;1.10;;
15673;SDS011;7937;48.090;16.212;2023-02-04T01:21:38;3.13;;;0.90;;
15673;SDS011;7937;48.090;16.212;2023-02-04T01:24:41;2.20;;;0.80;;
15673;SDS011;7937;48.090;16.212;2023-02-04T01:28:02;6.27;;;2.17;;
15673;SDS011;7937;48.090;16.212;2023-02-04T01:31:04;3.70;;;1.40;;
15673;SDS011;7937;48.090;16.212;2023-02-04T01:34:06;5.23;;;1.30;;
15673;SDS011;7937;48.090;16.212;2023-02-04T01:37:08;2.87;;;1.00;;
15673;SDS011;7937;48.090;16.212;2023-02-04T01:40:10;3.83;;;1.27;;
15673;SDS011;7937;48.090;16.212;2023-02-04T01:43:13;4.53;;;1.20;;
15673;SDS011;7937;48.090;16.212;2023-02-04T01:46:15;4.57;;;1.00;;
15673;SDS011;7937;48.090;16.212;2023-02-04T01:49:17;4.03;;;1.33;;
15673;SDS011;7937;48.090;16.212;2023-02-04T01:52:20;8.53;;;1.43;;
15673;SDS011;7937;48.090;16.212;2023-02-04T01:55:25;3.03;;;1.30;;
15673;SDS011;7937;48.090;16.212;2023-02-04T01:58:29;4.10;;;1.70;;
15673;SDS011;7937;48.090;16.212;2023-02-04T02:04:42;3.10;;;1.23;;
15673;SDS011;7937;48.090;16.212;2023-02-04T02:07:44;5.73;;;1.03;;
15673;SDS011;7937;48.090;16.212;2023-02-04T02:10:46;7.60;;;2.17;;
15673;SDS011;7937;48.090;16.212;2023-02-04T02:13:50;7.63;;;2.07;;
15673;SDS011;7937;48.090;16.212;2023-02-04T02:16:52;3.10;;;1.23;;
15673;SDS011;7937;48.090;16.212;2023-02-04T02:19:54;4.47;;;1.60;;
15673;SDS011;7937;48.090;16.212;2023-02-04T02:23:01;7.50;;;1.50;;
15673;SDS011;7937;48.090;16.212;2023-02-04T02:26:16;4.47;;;1.30;;
15673;SDS011;7937;48.090;16.212;2023-02-04T02:29:21;4.40;;;1.30;;
15673;SDS011;7937;48.090;16.212;2023-02-04T02:32:24;6.50;;;1.20;;
15673;SDS011;7937;48.090;16.212;2023-02-04T02:35:26;7.87;;;1.07;;
15673;SDS011;7937;48.090;16.212;2023-02-04T02:38:30;5.43;;;1.30;;
15673;SDS011;7937;48.090;16.212;2023-02-04T02:41:34;4.03;;;1.30;;
15673;SDS011;7937;48.090;16.212;2023-02-04T02:44:37;7.93;;;1.90;;
15673;SDS011;7937;48.090;16.212;2023-02-04T02:47:39;3.73;;;1.27;;
15673;SDS011;7937;48.090;16.212;2023-02-04T02:50:41;4.00;;;1.27;;
15673;SDS011;7937;48.090;16.212;2023-02-04T02:53:44;5.70;;;1.73;;
15673;SDS011;7937;48.090;16.212;2023-02-04T02:56:49;4.63;;;1.13;;
15673;SDS011;7937;48.090;16.212;2023-02-04T02:59:51;2.57;;;1.10;;
15673;SDS011;7937;48.090;16.212;2023-02-04T03:03:03;3.47;;;1.33;;
15673;SDS011;7937;48.090;16.212;2023-02-04T03:09:22;4.30;;;1.40;;
15673;SDS011;7937;48.090;16.212;2023-02-04T03:12:27;2.23;;;1.27;;
15673;SDS011;7937;48.090;16.212;2023-02-04T03:15:30;3.53;;;1.47;;
15673;SDS011;7937;48.090;16.212;2023-02-04T03:18:32;4.23;;;1.73;;
15673;SDS011;7937;48.090;16.212;2023-02-04T03:21:36;7.63;;;1.30;;
15673;SDS011;7937;48.090;16.212;2023-02-04T03:24:38;5.13;;;1.20;;
15673;SDS011;7937;48.090;16.212;2023-02-04T03:27:40;2.70;;;1.50;;
15673;SDS011;7937;48.090;16.212;2023-02-04T03:30:42;3.53;;;1.17;;
15673;SDS011;7937;48.090;16.212;2023-02-04T03:33:45;5.80;;;0.80;;
15673;SDS011;7937;48.090;16.212;2023-02-04T03:36:47;4.23;;;1.27;;
15673;SDS011;7937;48.090;16.212;2023-02-04T03:39:50;6.07;;;1.10;;
15673;SDS011;7937;48.090;16.212;2023-02-04T03:42:52;6.03;;;1.37;;
15673;SDS011;7937;48.090;16.212;2023-02-04T03:45:54;3.83;;;0.97;;
15673;SDS011;7937;48.090;16.212;2023-02-04T03:48:56;5.70;;;1.20;;
15673;SDS011;7937;48.090;16.212;2023-02-04T03:51:58;3.07;;;0.90;;
15673;SDS011;7937;48.090;16.212;2023-02-04T03:55:00;4.53;;;1.10;;
15673;SDS011;7937;48.090;16.212;2023-02-04T03:58:02;5.60;;;1.00;;
15673;SDS011;7937;48.090;16.212;2023-02-04T04:01:05;1.77;;;0.70;;
15673;SDS011;7937;48.090;16.212;2023-02-04T04:04:08;5.40;;;1.10;;
15673;SDS011;7937;48.090;16.212;2023-02-04T04:07:10;3.97;;;0.90;;
15673;SDS011;7937;48.090;16.212;2023-02-04T04:10:12;3.20;;;0.90;;
15673;SDS011;7937;48.090;16.212;2023-02-04T04:13:14;1.83;;;0.83;;
15673;SDS011;7937;48.090;16.212;2023-02-04T04:16:16;3.83;;;1.20;;
15673;SDS011;7937;48.090;16.212;2023-02-04T04:19:18;4.73;;;1.10;;
15673;SDS011;7937;48.090;16.212;2023-02-04T04:22:20;6.13;;;1.10;;
15673;SDS011;7937;48.090;16.212;2023-02-04T04:25:22;1.83;;;0.87;;
15673;SDS011;7937;48.090;16.212;2023-02-04T04:28:24;5.57;;;1.30;;
15673;SDS011;7937;48.090;16.212;2023-02-04T04:31:26;3.47;;;0.90;;
15673;SDS011;7937;48.090;16.212;2023-02-04T04:34:28;3.33;;;1.03;;
15673;SDS011;7937;48.090;16.212;2023-02-04T04:37:30;1.17;;;0.50;;
15673;SDS011;7937;48.090;16.212;2023-02-04T04:40:32;1.63;;;0.50;;
15673;SDS011;7937;48.090;16.212;2023-02-04T04:43:34;2.40;;;0.50;;
15673;SDS011;7937;48.090;16.212;2023-02-04T04:46:36;1.90;;;0.70;;
15673;SDS011;7937;48.090;16.212;2023-02-04T04:49:41;0.90;;;0.40;;
15673;SDS011;7937;48.090;16.212;2023-02-04T04:52:43;1.03;;;0.37;;
15673;SDS011;7937;48.090;16.212;2023-02-04T04:55:45;1.03;;;0.27;;
15673;SDS011;7937;48.090;16.212;2023-02-04T04:58:47;0.37;;;0.37;;
15673;SDS011;7937;48.090;16.212;2023-02-04T05:01:49;0.60;;;0.30;;
15673;SDS011;7937;48.090;16.212;2023-02-04T05:04:51;0.40;;;0.30;;
15673;SDS011;7937;48.090;16.212;2023-02-04T05:07:53;0.70;;;0.27;;
15673;SDS011;7937;48.090;16.212;2023-02-04T05:10:55;1.07;;;0.40;;
15673;SDS011;7937;48.090;16.212;2023-02-04T05:13:57;0.53;;;0.50;;
15673;SDS011;7937;48.090;16.212;2023-02-04T05:16:59;0.40;;;0.40;;
15673;SDS011;7937;48.090;16.212;2023-02-04T05:20:01;0.30;;;0.30;;
15673;SDS011;7937;48.090;16.212;2023-02-04T05:23:04;0.80;;;0.40;;
15673;SDS011;7937;48.090;16.212;2023-02-04T05:26:06;1.13;;;0.43;;
15673;SDS011;7937;48.090;16.212;2023-02-04T05:29:08;0.80;;;0.50;;
15673;SDS011;7937;48.090;16.212;2023-02-04T05:32:11;1.03;;;0.30;;
15673;SDS011;7937;48.090;16.212;2023-02-04T05:35:13;1.07;;;0.50;;
15673;SDS011;7937;48.090;16.212;2023-02-04T05:38:15;0.50;;;0.40;;
15673;SDS011;7937;48.090;16.212;2023-02-04T05:41:17;1.30;;;0.70;;
15673;SDS011;7937;48.090;16.212;2023-02-04T05:44:19;0.40;;;0.40;;
15673;SDS011;7937;48.090;16.212;2023-02-04T05:47:21;0.67;;;0.43;;
15673;SDS011;7937;48.090;16.212;2023-02-04T05:50:23;0.63;;;0.60;;
15673;SDS011;7937;48.090;16.212;2023-02-04T05:53:41;0.50;;;0.50;;
15673;SDS011;7937;48.090;16.212;2023-02-04T05:56:44;1.30;;;0.70;;
15673;SDS011;7937;48.090;16.212;2023-02-04T05:59:47;0.50;;;0.50;;
15673;SDS011;7937;48.090;16.212;2023-02-04T06:02:48;0.87;;;0.87;;
15673;SDS011;7937;48.090;16.212;2023-02-04T06:05:51;1.40;;;1.03;;
15673;SDS011;7937;48.090;16.212;2023-02-04T06:08:53;1.17;;;0.60;;
15673;SDS011;7937;48.090;16.212;2023-02-04T06:11:55;0.80;;;0.63;;
15673;SDS011;7937;48.090;16.212;2023-02-04T06:14:58;0.73;;;0.73;;
15673;SDS011;7937;48.090;16.212;2023-02-04T06:17:59;0.97;;;0.70;;
15673;SDS011;7937;48.090;16.212;2023-02-04T06:21:02;0.70;;;0.60;;
15673;SDS011;7937;48.090;16.212;2023-02-04T06:24:05;2.47;;;0.87;;
15673;SDS011;7937;48.090;16.212;2023-02-04T06:27:07;2.43;;;0.70;;
15673;SDS011;7937;48.090;16.212;2023-02-04T06:30:09;0.63;;;0.63;;
15673;SDS011;7937;48.090;16.212;2023-02-04T06:33:12;0.70;;;0.67;;
15673;SDS011;7937;48.090;16.212;2023-02-04T06:36:14;1.07;;;0.80;;
15673;SDS011;7937;48.090;16.212;2023-02-04T06:39:16;1.17;;;0.77;;
15673;SDS011;7937;48.090;16.212;2023-02-04T06:42:18;1.10;;;1.00;;
15673;SDS011;7937;48.090;16.212;2023-02-04T06:45:20;0.83;;;0.83;;
15673;SDS011;7937;48.090;16.212;2023-02-04T06:48:22;0.77;;;0.70;;
15673;SDS011;7937;48.090;16.212;2023-02-04T06:51:24;1.47;;;0.97;;
15673;SDS011;7937;48.090;16.212;2023-02-04T06:54:26;1.67;;;0.80;;
15673;SDS011;7937;48.090;16.212;2023-02-04T06:57:28;1.10;;;0.90;;
15673;SDS011;7937;48.090;16.212;2023-02-04T07:00:30;1.63;;;1.10;;
15673;SDS011;7937;48.090;16.212;2023-02-04T07:03:33;1.80;;;0.93;;
15673;SDS011;7937;48.090;16.212;2023-02-04T07:06:35;1.30;;;1.03;;
15673;SDS011;7937;48.090;16.212;2023-02-04T07:09:37;1.17;;;1.00;;
15673;SDS011;7937;48.090;16.212;2023-02-04T07:12:41;1.40;;;0.90;;
15673;SDS011;7937;48.090;16.212;2023-02-04T07:15:43;1.50;;;1.00;;
15673;SDS011;7937;48.090;16.212;2023-02-04T07:18:45;1.30;;;1.20;;
15673;SDS011;7937;48.090;16.212;2023-02-04T07:21:47;1.73;;;1.20;;
15673;SDS011;7937;48.090;16.212;2023-02-04T07:24:49;2.43;;;1.30;;
15673;SDS011;7937;48.090;16.212;2023-02-04T07:27:51;1.73;;;1.20;;
15673;SDS011;7937;48.090;16.212;2023-02-04T07:30:53;1.73;;;1.27;;
15673;SDS011;7937;48.090;16.212;2023-02-04T07:33:55;1.60;;;1.40;;
15673;SDS011;7937;48.090;16.212;2023-02-04T07:36:57;2.60;;;1.40;;
15673;SDS011;7937;48.090;16.212;2023-02-04T07:40:00;1.43;;;1.33;;
15673;SDS011;7937;48.090;16.212;2023-02-04T07:43:02;3.27;;;1.67;;
15673;SDS011;7937;48.090;16.212;2023-02-04T07:46:06;1.90;;;1.37;;
15673;SDS011;7937;48.090;16.212;2023-02-04T07:49:08;1.87;;;1.30;;
15673;SDS011;7937;48.090;16.212;2023-02-04T07:52:10;1.97;;;1.43;;
15673;SDS011;7937;48.090;16.212;2023-02-04T07:55:12;1.97;;;1.60;;
15673;SDS011;7937;48.090;16.212;2023-02-04T07:58:15;1.30;;;1.10;;
15673;SDS011;7937;48.090;16.212;2023-02-04T08:01:17;1.63;;;1.30;;
15673;SDS011;7937;48.090;16.212;2023-02-04T08:04:19;1.30;;;1.10;;
15673;SDS011;7937;48.090;16.212;2023-02-04T08:07:21;1.70;;;1.20;;
15673;SDS011;7937;48.090;16.212;2023-02-04T08:10:23;2.60;;;1.43;;
15673;SDS011;7937;48.090;16.212;2023-02-04T08:13:25;1.23;;;1.13;;
15673;SDS011;7937;48.090;16.212;2023-02-04T08:16:27;1.63;;;1.47;;
15673;SDS011;7937;48.090;16.212;2023-02-04T08:19:29;1.40;;;1.30;;
15673;SDS011;7937;48.090;16.212;2023-02-04T08:22:31;1.13;;;0.90;;
15673;SDS011;7937;48.090;16.212;2023-02-04T08:25:35;1.10;;;1.00;;
15673;SDS011;7937;48.090;16.212;2023-02-04T08:28:37;1.00;;;0.50;;
15673;SDS011;7937;48.090;16.212;2023-02-04T08:31:39;0.70;;;0.63;;
15673;SDS011;7937;48.090;16.212;2023-02-04T08:34:41;0.60;;;0.50;;
15673;SDS011;7937;48.090;16.212;2023-02-04T08:37:44;0.67;;;0.43;;
15673;SDS011;7937;48.090;16.212;2023-02-04T08:40:46;0.50;;;0.50;;
15673;SDS011;7937;48.090;16.212;2023-02-04T08:43:48;0.60;;;0.40;;
15673;SDS011;7937;48.090;16.212;2023-02-04T08:46:50;0.67;;;0.50;;
15673;SDS011;7937;48.090;16.212;2023-02-04T08:49:52;0.50;;;0.50;;
15673;SDS011;7937;48.090;16.212;2023-02-04T08:52:54;0.63;;;0.43;;
15673;SDS011;7937;48.090;16.212;2023-02-04T08:55:56;0.87;;;0.63;;
15673;SDS011;7937;48.090;16.212;2023-02-04T08:58:58;0.73;;;0.40;;
15673;SDS011;7937;48.090;16.212;2023-02-04T09:02:00;1.17;;;1.07;;
15673;SDS011;7937;48.090;16.212;2023-02-04T09:05:03;0.50;;;0.40;;
15673;SDS011;7937;48.090;16.212;2023-02-04T09:08:06;1.03;;;0.57;;
15673;SDS011;7937;48.090;16.212;2023-02-04T09:11:08;0.90;;;0.70;;
15673;SDS011;7937;48.090;16.212;2023-02-04T09:14:12;0.80;;;0.70;;
15673;SDS011;7937;48.090;16.212;2023-02-04T09:17:14;0.80;;;0.77;;
15673;SDS011;7937;48.090;16.212;2023-02-04T09:20:16;0.73;;;0.70;;
15673;SDS011;7937;48.090;16.212;2023-02-04T09:23:19;2.20;;;0.60;;
15673;SDS011;7937;48.090;16.212;2023-02-04T09:26:21;0.70;;;0.60;;
15673;SDS011;7937;48.090;16.212;2023-02-04T09:29:23;1.80;;;0.60;;
15673;SDS011;7937;48.090;16.212;2023-02-04T09:32:26;0.57;;;0.57;;
15673;SDS011;7937;48.090;16.212;2023-02-04T09:35:28;0.50;;;0.50;;
15673;SDS011;7937;48.090;16.212;2023-02-04T09:38:30;0.90;;;0.70;;
15673;SDS011;7937;48.090;16.212;2023-02-04T09:41:32;0.40;;;0.40;;
15673;SDS011;7937;48.090;16.212;2023-02-04T09:44:35;0.60;;;0.50;;
15673;SDS011;7937;48.090;16.212;2023-02-04T09:47:38;0.77;;;0.70;;
15673;SDS011;7937;48.090;16.212;2023-02-04T09:50:40;0.73;;;0.70;;
15673;SDS011;7937;48.090;16.212;2023-02-04T09:53:42;0.87;;;0.57;;
15673;SDS011;7937;48.090;16.212;2023-02-04T09:56:45;0.53;;;0.53;;
15673;SDS011;7937;48.090;16.212;2023-02-04T09:59:48;0.70;;;0.60;;
15673;SDS011;7937;48.090;16.212;2023-02-04T10:02:51;0.50;;;0.50;;
15673;SDS011;7937;48.090;16.212;2023-02-04T10:05:54;1.07;;;0.60;;
15673;SDS011;7937;48.090;16.212;2023-02-04T10:08:56;1.53;;;0.60;;
15673;SDS011;7937;48.090;16.212;2023-02-04T10:11:58;2.00;;;0.63;;
15673;SDS011;7937;48.090;16.212;2023-02-04T10:15:00;3.90;;;0.60;;
15673;SDS011;7937;48.090;16.212;2023-02-04T10:18:05;0.93;;;0.60;;
15673;SDS011;7937;48.090;16.212;2023-02-04T10:24:40;1.93;;;0.70;;
15673;SDS011;7937;48.090;16.212;2023-02-04T10:28:16;0.80;;;0.57;;
15673;SDS011;7937;48.090;16.212;2023-02-04T10:31:30;1.80;;;0.80;;
15673;SDS011;7937;48.090;16.212;2023-02-04T10:34:37;0.83;;;0.70;;
15673;SDS011;7937;48.090;16.212;2023-02-04T10:37:40;1.60;;;0.90;;
15673;SDS011;7937;48.090;16.212;2023-02-04T10:40:42;0.97;;;0.60;;
15673;SDS011;7937;48.090;16.212;2023-02-04T10:43:45;2.03;;;0.70;;
15673;SDS011;7937;48.090;16.212;2023-02-04T10:46:47;1.30;;;0.57;;
15673;SDS011;7937;48.090;16.212;2023-02-04T10:53:07;1.10;;;0.80;;
15673;SDS011;7937;48.090;16.212;2023-02-04T10:56:30;0.70;;;0.67;;
15673;SDS011;7937;48.090;16.212;2023-02-04T10:59:32;0.70;;;0.60;;
15673;SDS011;7937;48.090;16.212;2023-02-04T11:03:21;0.80;;;0.50;;
15673;SDS011;7937;48.090;16.212;2023-02-04T11:06:40;1.00;;;0.80;;
15673;SDS011;7937;48.090;16.212;2023-02-04T11:09:42;1.30;;;0.90;;
15673;SDS011;7937;48.090;16.212;2023-02-04T11:12:46;0.70;;;0.70;;
15673;SDS011;7937;48.090;16.212;2023-02-04T11:19:29;1.10;;;0.60;;
15673;SDS011;7937;48.090;16.212;2023-02-04T11:22:42;0.80;;;0.80;;
15673;SDS011;7937;48.090;16.212;2023-02-04T11:26:00;1.20;;;0.90;;
15673;SDS011;7937;48.090;16.212;2023-02-04T11:35:38;1.20;;;0.87;;
15673;SDS011;7937;48.090;16.212;2023-02-04T11:39:05;0.73;;;0.50;;
15673;SDS011;7937;48.090;16.212;2023-02-04T11:45:41;0.50;;;0.50;;
15673;SDS011;7937;48.090;16.212;2023-02-04T11:48:43;0.80;;;0.70;;
15673;SDS011;7937;48.090;16.212;2023-02-04T11:51:45;1.00;;;0.90;;
15673;SDS011;7937;48.090;16.212;2023-02-04T11:54:55;0.73;;;0.73;;
15673;SDS011;7937;48.090;16.212;2023-02-04T11:57:59;1.10;;;1.00;;
15673;SDS011;7937;48.090;16.212;2023-02-04T12:01:01;0.83;;;0.50;;
15673;SDS011;7937;48.090;16.212;2023-02-04T12:04:04;0.67;;;0.60;;
15673;SDS011;7937;48.090;16.212;2023-02-04T12:07:10;1.00;;;0.70;;
15673;SDS011;7937;48.090;16.212;2023-02-04T12:10:18;0.63;;;0.50;;
15673;SDS011;7937;48.090;16.212;2023-02-04T12:13:25;1.00;;;0.60;;
15673;SDS011;7937;48.090;16.212;2023-02-04T12:16:38;1.40;;;0.73;;
15673;SDS011;7937;48.090;16.212;2023-02-04T12:19:54;0.63;;;0.50;;
15673;SDS011;7937;48.090;16.212;2023-02-04T12:22:56;0.60;;;0.60;;
15673;SDS011;7937;48.090;16.212;2023-02-04T12:25:58;1.37;;;0.77;;
15673;SDS011;7937;48.090;16.212;2023-02-04T12:29:00;0.67;;;0.50;;
15673;SDS011;7937;48.090;16.212;2023-02-04T12:32:04;1.87;;;0.80;;
15673;SDS011;7937;48.090;16.212;2023-02-04T12:35:06;0.50;;;0.50;;
15673;SDS011;7937;48.090;16.212;2023-02-04T12:38:08;0.50;;;0.50;;
15673;SDS011;7937;48.090;16.212;2023-02-04T12:41:10;1.40;;;0.60;;
15673;SDS011;7937;48.090;16.212;2023-02-04T12:44:12;1.53;;;0.60;;
15673;SDS011;7937;48.090;16.212;2023-02-04T12:47:15;0.90;;;0.70;;
15673;SDS011;7937;48.090;16.212;2023-02-04T12:50:18;0.67;;;0.57;;
15673;SDS011;7937;48.090;16.212;2023-02-04T12:53:23;2.13;;;0.80;;
15673;SDS011;7937;48.090;16.212;2023-02-04T12:56:25;0.80;;;0.70;;
15673;SDS011;7937;48.090;16.212;2023-02-04T12:59:27;1.07;;;0.80;;
15673;SDS011;7937;48.090;16.212;2023-02-04T13:02:31;1.60;;;0.80;;
15673;SDS011;7937;48.090;16.212;2023-02-04T13:05:33;1.07;;;0.60;;
15673;SDS011;7937;48.090;16.212;2023-02-04T13:08:36;1.00;;;0.60;;
15673;SDS011;7937;48.090;16.212;2023-02-04T13:11:38;0.90;;;0.70;;
15673;SDS011;7937;48.090;16.212;2023-02-04T13:14:40;0.60;;;0.60;;
15673;SDS011;7937;48.090;16.212;2023-02-04T13:17:43;0.77;;;0.60;;
15673;SDS011;7937;48.090;16.212;2023-02-04T13:20:45;0.80;;;0.60;;
15673;SDS011;7937;48.090;16.212;2023-02-04T13:23:47;0.70;;;0.60;;
15673;SDS011;7937;48.090;16.212;2023-02-04T13:26:49;0.60;;;0.60;;
15673;SDS011;7937;48.090;16.212;2023-02-04T13:29:51;0.70;;;0.60;;
15673;SDS011;7937;48.090;16.212;2023-02-04T13:32:54;0.63;;;0.60;;
15673;SDS011;7937;48.090;16.212;2023-02-04T13:35:56;0.90;;;0.70;;
15673;SDS011;7937;48.090;16.212;2023-02-04T13:38:58;0.50;;;0.50;;
15673;SDS011;7937;48.090;16.212;2023-02-04T13:42:01;1.00;;;0.73;;
15673;SDS011;7937;48.090;16.212;2023-02-04T13:45:06;1.90;;;0.97;;
15673;SDS011;7937;48.090;16.212;2023-02-04T13:48:13;1.23;;;0.80;;
15673;SDS011;7937;48.090;16.212;2023-02-04T13:51:15;0.50;;;0.43;;
15673;SDS011;7937;48.090;16.212;2023-02-04T13:54:18;0.90;;;0.67;;
15673;SDS011;7937;48.090;16.212;2023-02-04T13:57:20;1.17;;;0.70;;
15673;SDS011;7937;48.090;16.212;2023-02-04T14:00:23;1.50;;;0.90;;
15673;SDS011;7937;48.090;16.212;2023-02-04T14:03:25;0.90;;;0.53;;
15673;SDS011;7937;48.090;16.212;2023-02-04T14:06:29;1.50;;;0.90;;
15673;SDS011;7937;48.090;16.212;2023-02-04T14:09:34;1.97;;;0.70;;
15673;SDS011;7937;48.090;16.212;2023-02-04T14:12:36;0.57;;;0.53;;
15673;SDS011;7937;48.090;16.212;2023-02-04T14:15:38;3.80;;;0.97;;
15673;SDS011;7937;48.090;16.212;2023-02-04T14:18:42;2.53;;;0.70;;
15673;SDS011;7937;48.090;16.212;2023-02-04T14:21:44;1.50;;;0.70;;
15673;SDS011;7937;48.090;16.212;2023-02-04T14:24:47;0.87;;;0.60;;
15673;SDS011;7937;48.090;16.212;2023-02-04T14:27:49;1.10;;;0.70;;
15673;SDS011;7937;48.090;16.212;2023-02-04T14:30:52;1.27;;;0.87;;
15673;SDS011;7937;48.090;16.212;2023-02-04T14:33:55;1.23;;;0.70;;
15673;SDS011;7937;48.090;16.212;2023-02-04T14:36:57;1.10;;;0.70;;
15673;SDS011;7937;48.090;16.212;2023-02-04T14:39:59;1.23;;;0.67;;
15673;SDS011;7937;48.090;16.212;2023-02-04T14:43:01;0.70;;;0.63;;
15673;SDS011;7937;48.090;16.212;2023-02-04T14:46:03;1.27;;;0.90;;
15673;SDS011;7937;48.090;16.212;2023-02-04T14:49:06;0.87;;;0.80;;
15673;SDS011;7937;48.090;16.212;2023-02-04T14:52:08;1.63;;;0.80;;
15673;SDS011;7937;48.090;16.212;2023-02-04T14:55:11;0.80;;;0.80;;
15673;SDS011;7937;48.090;16.212;2023-02-04T14:58:15;0.87;;;0.60;;
15673;SDS011;7937;48.090;16.212;2023-02-04T15:01:17;1.10;;;0.70;;
15673;SDS011;7937;48.090;16.212;2023-02-04T15:04:20;0.73;;;0.60;;
15673;SDS011;7937;48.090;16.212;2023-02-04T15:07:22;1.23;;;0.73;;
15673;SDS011;7937;48.090;16.212;2023-02-04T15:10:25;1.13;;;0.80;;
15673;SDS011;7937;48.090;16.212;2023-02-04T15:13:27;0.80;;;0.50;;
15673;SDS011;7937;48.090;16.212;2023-02-04T15:16:29;0.70;;;0.70;;
15673;SDS011;7937;48.090;16.212;2023-02-04T15:19:32;3.47;;;0.57;;
15673;SDS011;7937;48.090;16.212;2023-02-04T15:22:34;1.70;;;0.70;;
15673;SDS011;7937;48.090;16.212;2023-02-04T15:25:36;0.73;;;0.50;;
15673;SDS011;7937;48.090;16.212;2023-02-04T15:28:38;0.77;;;0.77;;
15673;SDS011;7937;48.090;16.212;2023-02-04T15:31:40;1.73;;;0.87;;
15673;SDS011;7937;48.090;16.212;2023-02-04T15:34:43;0.57;;;0.43;;
15673;SDS011;7937;48.090;16.212;2023-02-04T15:37:45;1.00;;;0.70;;
15673;SDS011;7937;48.090;16.212;2023-02-04T15:40:47;2.13;;;0.70;;
15673;SDS011;7937;48.090;16.212;2023-02-04T15:43:49;1.37;;;0.77;;
15673;SDS011;7937;48.090;16.212;2023-02-04T15:46:51;0.90;;;0.70;;
15673;SDS011;7937;48.090;16.212;2023-02-04T15:49:55;1.67;;;0.87;;
15673;SDS011;7937;48.090;16.212;2023-02-04T15:52:57;1.43;;;0.90;;
15673;SDS011;7937;48.090;16.212;2023-02-04T15:55:59;1.07;;;0.57;;
15673;SDS011;7937;48.090;16.212;2023-02-04T15:59:02;0.90;;;0.67;;
15673;SDS011;7937;48.090;16.212;2023-02-04T16:02:04;1.30;;;0.77;;
15673;SDS011;7937;48.090;16.212;2023-02-04T16:05:07;1.27;;;0.90;;
15673;SDS011;7937;48.090;16.212;2023-02-04T16:08:09;1.70;;;0.80;;
15673;SDS011;7937;48.090;16.212;2023-02-04T16:11:11;1.47;;;0.80;;
15673;SDS011;7937;48.090;16.212;2023-02-04T16:14:13;0.70;;;0.70;;
15673;SDS011;7937;48.090;16.212;2023-02-04T16:17:16;0.90;;;0.60;;
15673;SDS011;7937;48.090;16.212;2023-02-04T16:20:19;1.80;;;0.57;;
15673;SDS011;7937;48.090;16.212;2023-02-04T16:23:21;3.13;;;0.90;;
15673;SDS011;7937;48.090;16.212;2023-02-04T16:26:24;2.67;;;1.10;;
15673;SDS011;7937;48.090;16.212;2023-02-04T16:29:26;1.73;;;0.80;;
15673;SDS011;7937;48.090;16.212;2023-02-04T16:32:29;2.40;;;0.80;;
15673;SDS011;7937;48.090;16.212;2023-02-04T16:38:58;0.87;;;0.70;;
15673;SDS011;7937;48.090;16.212;2023-02-04T16:42:01;1.60;;;0.77;;
15673;SDS011;7937;48.090;16.212;2023-02-04T16:45:07;1.10;;;0.80;;
15673;SDS011;7937;48.090;16.212;2023-02-04T16:48:09;1.73;;;0.60;;
15673;SDS011;7937;48.090;16.212;2023-02-04T16:51:12;1.03;;;0.90;;
15673;SDS011;7937;48.090;16.212;2023-02-04T16:54:14;0.80;;;0.60;;
15673;SDS011;7937;48.090;16.212;2023-02-04T16:57:16;2.00;;;0.60;;
15673;SDS011;7937;48.090;16.212;2023-02-04T17:00:19;2.13;;;0.83;;
15673;SDS011;7937;48.090;16.212;2023-02-04T17:03:21;1.13;;;0.80;;
15673;SDS011;7937;48.090;16.212;2023-02-04T17:06:24;0.77;;;0.60;;
15673;SDS011;7937;48.090;16.212;2023-02-04T17:09:30;1.53;;;1.07;;
15673;SDS011;7937;48.090;16.212;2023-02-04T17:12:33;1.53;;;0.73;;
15673;SDS011;7937;48.090;16.212;2023-02-04T17:15:35;2.57;;;0.90;;
15673;SDS011;7937;48.090;16.212;2023-02-04T17:18:37;1.33;;;0.83;;
15673;SDS011;7937;48.090;16.212;2023-02-04T17:21:40;1.13;;;0.80;;
15673;SDS011;7937;48.090;16.212;2023-02-04T17:24:42;0.70;;;0.63;;
15673;SDS011;7937;48.090;16.212;2023-02-04T17:27:44;0.97;;;0.70;;
15673;SDS011;7937;48.090;16.212;2023-02-04T17:30:47;0.80;;;0.70;;
15673;SDS011;7937;48.090;16.212;2023-02-04T17:33:49;1.67;;;1.03;;
15673;SDS011;7937;48.090;16.212;2023-02-04T17:36:51;1.20;;;0.77;;
15673;SDS011;7937;48.090;16.212;2023-02-04T17:39:54;1.07;;;0.70;;
15673;SDS011;7937;48.090;16.212;2023-02-04T17:42:56;2.73;;;0.90;;
15673;SDS011;7937;48.090;16.212;2023-02-04T17:45:59;1.00;;;0.70;;
15673;SDS011;7937;48.090;16.212;2023-02-04T17:49:01;1.83;;;0.90;;
15673;SDS011;7937;48.090;16.212;2023-02-04T17:52:04;1.47;;;0.60;;
15673;SDS011;7937;48.090;16.212;2023-02-04T17:55:23;1.10;;;0.60;;
15673;SDS011;7937;48.090;16.212;2023-02-04T17:58:28;1.10;;;0.87;;
15673;SDS011;7937;48.090;16.212;2023-02-04T18:01:33;2.93;;;0.73;;
15673;SDS011;7937;48.090;16.212;2023-02-04T18:04:37;1.27;;;0.93;;
15673;SDS011;7937;48.090;16.212;2023-02-04T18:07:46;1.43;;;0.90;;
15673;SDS011;7937;48.090;16.212;2023-02-04T18:11:06;1.30;;;0.90;;
15673;SDS011;7937;48.090;16.212;2023-02-04T18:14:24;1.23;;;0.80;;
15673;SDS011;7937;48.090;16.212;2023-02-04T18:17:29;1.10;;;0.90;;
15673;SDS011;7937;48.090;16.212;2023-02-04T18:20:32;1.17;;;0.83;;
15673;SDS011;7937;48.090;16.212;2023-02-04T18:23:34;2.03;;;1.00;;
15673;SDS011;7937;48.090;16.212;2023-02-04T18:26:46;1.17;;;0.70;;
15673;SDS011;7937;48.090;16.212;2023-02-04T18:29:51;0.90;;;0.90;;
15673;SDS011;7937;48.090;16.212;2023-02-04T18:33:05;1.07;;;0.87;;
15673;SDS011;7937;48.090;16.212;2023-02-04T18:36:17;1.70;;;0.90;;
15673;SDS011;7937;48.090;16.212;2023-02-04T18:39:26;1.97;;;0.80;;
15673;SDS011;7937;48.090;16.212;2023-02-04T18:42:37;0.70;;;0.70;;
15673;SDS011;7937;48.090;16.212;2023-02-04T18:45:42;2.30;;;0.90;;
15673;SDS011;7937;48.090;16.212;2023-02-04T18:48:51;2.77;;;1.07;;
15673;SDS011;7937;48.090;16.212;2023-02-04T18:52:21;2.17;;;1.10;;
15673;SDS011;7937;48.090;16.212;2023-02-04T18:55:32;2.93;;;0.77;;
15673;SDS011;7937;48.090;16.212;2023-02-04T18:58:40;2.00;;;0.83;;